Time;durP1;ratioP1;P1;durP2;ratioP2;P2;SDS_P1;SDS_P2;PMS_P1;PMS_P2;Temp;Humidity;BMP_temperature;BMP_pressure;BME280_temperature;BME280_humidity;BME280_pressure;Samples;Min_cycle;Max_cycle;Signal;HPM_P1;HPM_P2
2022/01/24 00:01:58;;;;;;;0.80;0.40;;;25.40;65.70;;;;;;4158980;28;20056;-87
2022/01/24 00:04:21;;;;;;;1.50;0.60;;;25.40;65.70;;;;;;4161181;28;20428;-86
2022/01/24 00:06:44;;;;;;;1.92;0.98;;;25.40;65.80;;;;;;4160214;28;20037;-77
2022/01/24 00:09:07;;;;;;;0.88;0.60;;;25.40;65.80;;;;;;4159608;28;20065;-77
2022/01/24 00:14:50;;;;;;;1.25;0.65;;;25.50;65.60;;;;;;4159502;28;20033;-78
2022/01/24 00:17:10;;;;;;;0.77;0.60;;;25.40;65.60;;;;;;4159092;28;20056;-81
2022/01/24 00:27:35;;;;;;;2.17;0.90;;;25.50;65.10;;;;;;4156895;28;20033;-84
2022/01/24 00:29:58;;;;;;;0.50;0.40;;;25.50;65.20;;;;;;4159650;28;20069;-80
2022/01/24 00:32:22;;;;;;;2.10;0.50;;;25.50;65.10;;;;;;4160618;28;20039;-85
2022/01/24 00:34:44;;;;;;;2.17;0.63;;;25.50;65.00;;;;;;4157665;28;20034;-83
2022/01/24 00:37:07;;;;;;;1.15;0.40;;;25.50;64.90;;;;;;4161014;28;20053;-84
2022/01/24 00:39:29;;;;;;;0.75;0.57;;;25.50;64.80;;;;;;4150342;28;20121;-84
2022/01/24 00:42:50;;;;;;;0.52;0.40;;;25.50;64.80;;;;;;4160065;28;20048;-84
2022/01/24 00:47:22;;;;;;;1.90;0.52;;;25.50;64.40;;;;;;4159596;28;20486;-85
2022/01/24 00:55:07;;;;;;;0.55;0.47;;;25.60;64.30;;;;;;4160257;28;20045;-84
2022/01/24 00:57:29;;;;;;;1.33;0.75;;;25.60;64.30;;;;;;4158182;28;20560;-83
2022/01/24 00:59:52;;;;;;;1.30;0.60;;;25.60;64.10;;;;;;4160107;28;20049;-78
2022/01/24 01:02:15;;;;;;;1.10;0.52;;;25.60;64.30;;;;;;4144645;28;20124;-86
2022/01/24 01:04:59;;;;;;;2.20;0.60;;;25.60;64.30;;;;;;4158869;28;20029;-79
2022/01/24 01:18:09;;;;;;;1.95;0.60;;;25.60;64.10;;;;;;4156115;28;20136;-82
2022/01/24 01:20:51;;;;;;;1.17;0.60;;;25.60;64.20;;;;;;4148878;28;20045;-83
2022/01/24 01:23:14;;;;;;;0.88;0.40;;;25.70;64.30;;;;;;4153846;28;20184;-84
2022/01/24 01:25:38;;;;;;;2.08;0.60;;;25.70;64.30;;;;;;4152710;28;20041;-79
2022/01/24 01:28:01;;;;;;;2.15;0.47;;;25.70;64.30;;;;;;4160087;28;20037;-80
2022/01/24 01:30:34;;;;;;;2.03;0.70;;;25.70;64.20;;;;;;4159445;28;20083;-84
2022/01/24 01:33:05;;;;;;;0.30;0.30;;;25.70;64.10;;;;;;4158192;28;20077;-85
2022/01/24 01:38:27;;;;;;;1.30;0.35;;;25.70;64.20;;;;;;4152946;28;21857;-76
2022/01/24 01:54:45;;;;;;;0.77;0.60;;;25.80;64.20;;;;;;4151125;28;20041;-70
2022/01/24 01:57:18;;;;;;;1.85;0.73;;;25.80;64.20;;;;;;4150750;28;20051;-72
2022/01/24 01:59:41;;;;;;;2.53;0.82;;;25.80;64.40;;;;;;4150216;28;20030;-70
2022/01/24 02:02:04;;;;;;;1.15;0.70;;;25.80;64.30;;;;;;4154481;28;20037;-69
2022/01/24 02:04:29;;;;;;;1.63;0.60;;;25.80;64.30;;;;;;4154742;28;20033;-70
2022/01/24 02:06:51;;;;;;;0.85;0.40;;;25.80;64.20;;;;;;4150086;28;20049;-70
2022/01/24 02:09:16;;;;;;;0.85;0.52;;;25.90;64.30;;;;;;4155743;28;20414;-70
2022/01/24 02:11:38;;;;;;;0.80;0.60;;;25.80;64.40;;;;;;4149545;28;20078;-70
2022/01/24 02:14:05;;;;;;;1.50;0.90;;;25.80;64.20;;;;;;4153298;28;20418;-70
2022/01/24 02:16:53;;;;;;;2.08;0.55;;;25.90;64.30;;;;;;4151225;28;20056;-69
2022/01/24 02:19:21;;;;;;;1.38;0.68;;;25.90;64.20;;;;;;4150128;28;20049;-70
2022/01/24 02:22:18;;;;;;;1.07;0.63;;;25.90;64.20;;;;;;4150273;28;20471;-69
2022/01/24 02:24:37;;;;;;;0.82;0.52;;;25.90;64.20;;;;;;4152486;28;20359;-71
2022/01/24 02:27:00;;;;;;;;;;;25.90;64.30;;;;;;4152874;28;20084;-70
2022/01/24 02:29:42;;;;;;;0.55;0.40;;;25.90;64.30;;;;;;4153201;28;19999;-69
2022/01/24 02:32:05;;;;;;;1.13;0.63;;;25.90;64.30;;;;;;4157729;28;20040;-69
2022/01/24 02:34:42;;;;;;;0.88;0.60;;;25.90;64.10;;;;;;4155928;28;20103;-70
2022/01/24 02:37:12;;;;;;;0.75;0.50;;;26.00;64.20;;;;;;4155229;28;20053;-71
2022/01/24 02:50:04;;;;;;;1.42;0.60;;;26.10;63.80;;;;;;4152886;28;20045;-69
2022/01/24 02:52:27;;;;;;;1.00;0.52;;;26.10;63.60;;;;;;4140351;28;20049;-69
2022/01/24 02:54:50;;;;;;;0.75;0.35;;;26.00;63.70;;;;;;4151010;28;20048;-71
2022/01/24 02:57:12;;;;;;;0.40;0.40;;;26.10;63.70;;;;;;4152595;28;20404;-69
2022/01/24 02:59:36;;;;;;;0.90;0.50;;;26.10;63.60;;;;;;4157730;28;20083;-70
2022/01/24 03:01:58;;;;;;;1.33;0.80;;;26.10;63.70;;;;;;4153619;28;20045;-68
2022/01/24 03:04:21;;;;;;;0.85;0.57;;;26.10;63.60;;;;;;4154933;28;20044;-69
2022/01/24 03:06:43;;;;;;;1.10;0.60;;;26.10;63.40;;;;;;4148940;28;20038;-68
2022/01/24 03:09:07;;;;;;;0.88;0.60;;;26.10;63.40;;;;;;4152363;28;20037;-68
2022/01/24 03:11:52;;;;;;;2.17;0.73;;;26.10;63.20;;;;;;4155560;28;20082;-70
2022/01/24 03:14:12;;;;;;;1.08;0.43;;;26.20;63.10;;;;;;4160210;28;20488;-71
2022/01/24 03:16:34;;;;;;;0.70;0.50;;;26.20;63.10;;;;;;4159445;28;20052;-70
2022/01/24 03:18:57;;;;;;;1.52;0.47;;;26.20;63.10;;;;;;4152433;28;20149;-71
2022/01/24 03:21:20;;;;;;;0.95;0.47;;;26.20;62.80;;;;;;4152612;28;20432;-70
2022/01/24 03:23:42;;;;;;;1.23;0.60;;;26.20;62.60;;;;;;4152281;28;20043;-69
2022/01/24 03:26:04;;;;;;;1.90;0.55;;;26.20;62.50;;;;;;4157505;28;20048;-70
2022/01/24 03:28:33;;;;;;;1.58;0.77;;;26.20;62.40;;;;;;4153635;28;20044;-70
2022/01/24 03:30:55;;;;;;;2.15;0.73;;;26.30;62.20;;;;;;4157238;28;20045;-71
2022/01/24 03:33:18;;;;;;;0.90;0.45;;;26.30;61.90;;;;;;4157814;28;20499;-70
2022/01/24 03:35:41;;;;;;;1.08;0.40;;;26.30;62.20;;;;;;4158276;28;20040;-70
2022/01/24 03:38:04;;;;;;;1.48;0.90;;;26.30;62.20;;;;;;4156474;28;20419;-69
2022/01/24 03:40:27;;;;;;;1.60;0.98;;;26.30;62.00;;;;;;4156552;28;20037;-68
2022/01/24 03:42:50;;;;;;;2.20;0.63;;;26.30;62.00;;;;;;4158410;28;20056;-70
2022/01/24 03:45:12;;;;;;;2.63;1.10;;;26.30;62.10;;;;;;4151147;28;20083;-69
2022/01/24 03:50:00;;;;;;;3.03;0.90;;;26.30;62.10;;;;;;4162048;28;20069;-70
2022/01/24 03:52:22;;;;;;;1.85;0.90;;;26.30;62.20;;;;;;4156440;28;20073;-70
2022/01/24 03:54:49;;;;;;;1.48;0.82;;;26.40;62.20;;;;;;4151747;28;20034;-70
2022/01/24 03:57:17;;;;;;;2.50;1.00;;;26.40;62.30;;;;;;4151965;28;20045;-68
2022/01/24 03:59:40;;;;;;;3.22;1.17;;;26.40;62.30;;;;;;4157189;28;20105;-67
2022/01/24 04:02:03;;;;;;;2.80;1.20;;;26.40;62.40;;;;;;4161173;28;20037;-69
2022/01/24 04:04:27;;;;;;;2.38;0.98;;;26.40;62.20;;;;;;4158824;28;20034;-69
2022/01/24 04:06:49;;;;;;;;;;;26.50;62.40;;;;;;4160141;28;20115;-70
2022/01/24 04:09:11;;;;;;;1.05;0.60;;;26.50;62.40;;;;;;4157559;28;19952;-69
2022/01/24 04:11:37;;;;;;;2.85;0.98;;;26.50;62.40;;;;;;4154865;28;20153;-69
2022/01/24 04:14:11;;;;;;;2.40;1.05;;;26.60;62.50;;;;;;4153397;28;20041;-69
2022/01/24 04:16:40;;;;;;;2.55;0.93;;;26.70;62.40;;;;;;4154946;28;20085;-69
2022/01/24 04:22:00;;;;;;;2.78;1.10;;;26.70;62.30;;;;;;4105928;28;20059;-68
2022/01/24 04:24:24;;;;;;;1.80;0.90;;;26.70;62.30;;;;;;4148175;28;20034;-68
2022/01/24 04:26:47;;;;;;;2.30;1.00;;;26.70;62.30;;;;;;4162185;28;20128;-70
2022/01/24 04:29:09;;;;;;;2.92;1.10;;;26.80;62.20;;;;;;4157715;28;20746;-68
2022/01/24 04:31:32;;;;;;;2.83;1.20;;;26.80;62.10;;;;;;4151284;28;20120;-70
2022/01/24 04:33:55;;;;;;;4.63;1.17;;;26.80;62.20;;;;;;4156513;28;20124;-69
2022/01/24 04:36:18;;;;;;;3.28;1.13;;;26.80;62.10;;;;;;4154206;28;20041;-69
2022/01/24 04:38:40;;;;;;;1.42;0.82;;;26.90;62.20;;;;;;4153192;28;20064;-68
2022/01/24 04:41:11;;;;;;;2.95;0.98;;;26.90;62.20;;;;;;4159574;28;20057;-68
2022/01/24 04:43:56;;;;;;;3.45;1.33;;;26.90;62.20;;;;;;4155269;28;20158;-67
2022/01/24 04:51:52;;;;;;;3.10;1.13;;;26.90;62.10;;;;;;4160774;28;20466;-69
2022/01/24 04:56:57;;;;;;;2.38;1.00;;;27.00;62.00;;;;;;4156863;28;20045;-68
2022/01/24 04:59:19;;;;;;;2.95;1.02;;;27.10;62.00;;;;;;4159287;28;20418;-69
2022/01/24 05:01:42;;;;;;;3.65;1.10;;;27.10;61.90;;;;;;4159089;28;20478;-68
2022/01/24 05:04:05;;;;;;;4.63;1.10;;;27.20;62.00;;;;;;4159564;28;20040;-68
2022/01/24 05:06:27;;;;;;;2.53;1.00;;;27.20;62.00;;;;;;4158535;28;20457;-67
2022/01/24 05:08:50;;;;;;;1.75;0.75;;;27.20;62.00;;;;;;4158527;28;20049;-69
2022/01/24 05:11:18;;;;;;;1.75;0.85;;;27.20;62.00;;;;;;4158831;28;20049;-69
2022/01/24 05:24:23;;;;;;;1.38;0.68;;;27.40;62.10;;;;;;4156357;28;20068;-68
2022/01/24 05:26:45;;;;;;;2.35;1.00;;;27.50;61.70;;;;;;4156107;28;20056;-68
2022/01/24 05:29:08;;;;;;;2.25;0.95;;;27.50;61.60;;;;;;4158818;28;20451;-68
2022/01/24 05:31:30;;;;;;;2.47;0.83;;;27.60;61.70;;;;;;4150081;28;20518;-68
2022/01/24 05:33:53;;;;;;;2.85;0.93;;;27.60;61.60;;;;;;4148540;28;20033;-69
2022/01/24 05:36:15;;;;;;;2.08;0.90;;;27.70;61.70;;;;;;4150206;28;20054;-69
2022/01/24 05:38:39;;;;;;;4.10;1.02;;;27.70;61.50;;;;;;4149760;28;20792;-69
2022/01/24 05:41:02;;;;;;;5.47;1.10;;;27.70;61.50;;;;;;4151416;28;20471;-68
2022/01/24 05:43:25;;;;;;;2.88;1.00;;;27.70;61.40;;;;;;4151493;28;20049;-70
2022/01/24 05:45:48;;;;;;;3.10;0.90;;;27.80;61.20;;;;;;4149073;28;20041;-69
2022/01/24 05:48:10;;;;;;;2.50;0.88;;;27.80;61.10;;;;;;4154300;28;20071;-69
2022/01/24 05:50:33;;;;;;;2.38;0.70;;;27.90;61.20;;;;;;4154831;28;20077;-67
2022/01/24 05:52:55;;;;;;;3.85;1.13;;;27.90;61.10;;;;;;4151063;28;20072;-70
2022/01/24 05:55:18;;;;;;;1.70;0.75;;;28.00;60.70;;;;;;4151282;28;20334;-70
2022/01/24 05:57:41;;;;;;;2.90;0.82;;;28.00;60.80;;;;;;4151896;28;20041;-70
2022/01/24 06:00:07;;;;;;;4.53;1.17;;;28.00;60.80;;;;;;4157451;28;20037;-67
2022/01/24 06:02:29;;;;;;;2.85;0.98;;;28.00;60.90;;;;;;4151086;28;20041;-69
2022/01/24 06:04:52;;;;;;;1.98;0.77;;;28.00;61.00;;;;;;4151403;28;20091;-68
2022/01/24 06:07:14;;;;;;;2.30;0.98;;;28.00;61.00;;;;;;4154340;28;20044;-69
2022/01/24 06:09:40;;;;;;;3.17;1.05;;;28.10;61.00;;;;;;4154675;28;20742;-68
2022/01/24 06:12:02;;;;;;;6.60;1.40;;;28.20;60.90;;;;;;4160979;28;20030;-69
2022/01/24 06:14:25;;;;;;;1.80;0.88;;;28.20;60.60;;;;;;4160975;28;20065;-69
2022/01/24 06:16:48;;;;;;;2.13;1.10;;;28.20;60.30;;;;;;4161036;28;20454;-69
2022/01/24 06:19:13;;;;;;;2.63;1.17;;;28.30;60.20;;;;;;4161696;28;20038;-69
2022/01/24 06:21:36;;;;;;;2.90;1.00;;;28.30;60.00;;;;;;4158340;28;20048;-69
2022/01/24 06:23:58;;;;;;;4.17;1.00;;;28.30;59.60;;;;;;4145319;28;20858;-70
2022/01/24 06:26:21;;;;;;;2.53;0.90;;;28.40;59.90;;;;;;4155583;28;20271;-69
2022/01/24 06:28:46;;;;;;;3.43;1.17;;;28.40;59.80;;;;;;4155169;28;20041;-70
2022/01/24 06:31:09;;;;;;;2.50;0.95;;;28.50;59.80;;;;;;4157116;28;20055;-69
2022/01/24 06:33:31;;;;;;;2.40;0.90;;;28.50;59.70;;;;;;4159721;28;20491;-69
2022/01/24 06:35:54;;;;;;;2.03;0.82;;;28.60;60.30;;;;;;4153303;28;20037;-70
2022/01/24 06:38:16;;;;;;;2.97;1.08;;;28.60;59.60;;;;;;4159595;28;20091;-70
2022/01/24 06:40:39;;;;;;;1.25;0.80;;;28.70;59.60;;;;;;4150965;28;20750;-69
2022/01/24 06:43:01;;;;;;;2.25;0.80;;;28.70;59.70;;;;;;4153407;28;20049;-70
2022/01/24 06:45:24;;;;;;;2.63;1.25;;;28.80;59.70;;;;;;4155988;28;20033;-69
2022/01/24 06:47:46;;;;;;;2.75;0.98;;;28.80;59.60;;;;;;4145818;28;20046;-71
2022/01/24 06:50:09;;;;;;;3.35;1.00;;;28.80;60.50;;;;;;4153072;28;20041;-70
2022/01/24 06:52:32;;;;;;;3.38;0.95;;;28.70;61.10;;;;;;4158276;28;20518;-73
2022/01/24 06:54:54;;;;;;;2.50;0.90;;;28.70;61.80;;;;;;4156402;28;20082;-71
2022/01/24 06:57:17;;;;;;;2.47;0.77;;;28.60;62.20;;;;;;4157552;28;20406;-72
2022/01/24 06:59:41;;;;;;;1.70;0.70;;;28.60;62.40;;;;;;4152893;28;20045;-70
2022/01/24 07:02:04;;;;;;;2.17;0.80;;;28.60;63.20;;;;;;4154500;28;20049;-73
2022/01/24 07:04:27;;;;;;;2.80;0.82;;;28.50;62.60;;;;;;4158170;28;20037;-72
2022/01/24 07:06:52;;;;;;;2.47;0.93;;;28.60;62.90;;;;;;4153191;28;20045;-75
2022/01/24 07:09:14;;;;;;;2.30;0.80;;;28.60;63.00;;;;;;4152403;28;20053;-77
2022/01/24 07:11:37;;;;;;;3.58;1.30;;;28.60;63.00;;;;;;4157279;28;20041;-77
2022/01/24 07:14:00;;;;;;;2.30;0.80;;;28.60;63.10;;;;;;4157063;28;20048;-80
2022/01/24 07:16:25;;;;;;;2.03;0.60;;;28.60;63.00;;;;;;4151687;28;20450;-79
2022/01/24 07:19:03;;;;;;;1.75;0.90;;;28.60;62.70;;;;;;4158887;28;20327;-80
2022/01/24 07:21:26;;;;;;;1.92;0.80;;;28.60;62.70;;;;;;4155329;28;20068;-77
2022/01/24 07:23:48;;;;;;;2.92;0.95;;;28.60;62.80;;;;;;4157037;28;20092;-75
2022/01/24 07:26:11;;;;;;;3.88;1.25;;;28.60;62.90;;;;;;4152979;28;20044;-78
2022/01/24 07:28:33;;;;;;;4.03;1.20;;;28.60;62.80;;;;;;4158520;28;20996;-76
2022/01/24 07:30:55;;;;;;;6.50;1.17;;;28.50;62.70;;;;;;4155231;28;20160;-76
2022/01/24 07:33:18;;;;;;;2.78;1.02;;;28.60;62.90;;;;;;4154699;28;20433;-75
2022/01/24 07:35:41;;;;;;;2.20;0.77;;;28.60;62.80;;;;;;4156712;28;20036;-74
2022/01/24 07:38:05;;;;;;;4.38;1.17;;;28.60;62.90;;;;;;4154009;28;20080;-74
2022/01/24 07:40:29;;;;;;;3.30;1.25;;;28.60;62.90;;;;;;4157655;28;20091;-75
2022/01/24 07:43:09;;;;;;;8.70;1.48;;;28.60;62.80;;;;;;4145424;28;20121;-68
2022/01/24 07:45:32;;;;;;;5.32;0.82;;;28.60;62.90;;;;;;4155709;28;20471;-69
2022/01/24 07:47:54;;;;;;;4.22;0.82;;;28.60;62.90;;;;;;4153184;28;20678;-72
2022/01/24 07:50:23;;;;;;;8.73;1.55;;;28.60;62.80;;;;;;4149573;28;20044;-69
2022/01/24 07:52:46;;;;;;;4.53;1.20;;;28.50;62.70;;;;;;4152539;28;20084;-67
2022/01/24 07:55:08;;;;;;;3.40;0.90;;;28.60;62.80;;;;;;4158631;28;20041;-69
2022/01/24 07:57:31;;;;;;;10.60;1.13;;;28.60;62.70;;;;;;4156580;28;20414;-74
2022/01/24 07:59:53;;;;;;;3.70;0.98;;;28.60;62.60;;;;;;4139550;28;20041;-72
2022/01/24 08:02:16;;;;;;;1.33;0.70;;;28.50;62.40;;;;;;4155179;28;20038;-76
2022/01/24 08:04:38;;;;;;;3.97;1.17;;;28.60;62.40;;;;;;4153368;28;20038;-74
2022/01/24 08:07:01;;;;;;;2.05;0.80;;;28.60;62.30;;;;;;4155418;28;20067;-74
2022/01/24 08:09:23;;;;;;;4.63;0.77;;;28.60;62.30;;;;;;4160502;28;20442;-74
2022/01/24 08:11:45;;;;;;;2.45;0.98;;;28.50;62.20;;;;;;4151186;28;20038;-73
2022/01/24 08:14:08;;;;;;;1.15;0.70;;;28.60;62.20;;;;;;4111746;28;20045;-71
2022/01/24 08:16:31;;;;;;;1.73;0.90;;;28.60;62.00;;;;;;4150787;28;20042;-72
2022/01/24 08:18:55;;;;;;;4.45;1.10;;;28.60;62.00;;;;;;4153983;28;20037;-71
2022/01/24 08:21:18;;;;;;;2.78;0.90;;;28.50;62.10;;;;;;4153794;28;20044;-69
2022/01/24 08:23:41;;;;;;;3.83;0.90;;;28.50;61.90;;;;;;4158699;28;20101;-70
2022/01/24 08:26:04;;;;;;;2.30;0.88;;;28.50;61.70;;;;;;4154764;28;20085;-72
2022/01/24 08:28:26;;;;;;;3.05;0.65;;;28.50;61.80;;;;;;4154585;28;20105;-72
2022/01/24 08:30:49;;;;;;;1.83;0.75;;;28.50;62.00;;;;;;4152391;28;20870;-72
2022/01/24 08:33:11;;;;;;;3.30;0.85;;;28.50;62.20;;;;;;4155913;28;20037;-69
2022/01/24 08:35:34;;;;;;;2.08;1.05;;;28.50;62.00;;;;;;4156525;28;20508;-70
2022/01/24 08:37:56;;;;;;;2.30;1.00;;;28.50;62.10;;;;;;4158399;28;20542;-82
2022/01/24 08:40:25;;;;;;;2.58;0.70;;;28.50;63.00;;;;;;4156857;28;20029;-81
2022/01/24 08:42:57;;;;;;;2.22;0.90;;;28.50;62.30;;;;;;4145727;28;20436;-80
2022/01/24 08:48:00;;;;;;;8.95;1.25;;;28.50;62.40;;;;;;4146668;28;20125;-83
2022/01/24 08:50:26;;;;;;;6.38;1.58;;;28.50;62.50;;;;;;4155703;28;20101;-82
2022/01/24 08:52:48;;;;;;;5.03;1.08;;;28.50;62.40;;;;;;4148244;28;20749;-78
2022/01/24 08:55:11;;;;;;;3.03;0.77;;;28.50;62.20;;;;;;4158019;28;20495;-76
2022/01/24 08:57:33;;;;;;;2.53;0.98;;;28.40;61.90;;;;;;4151254;28;20171;-77
2022/01/24 08:59:56;;;;;;;2.25;0.90;;;28.40;61.70;;;;;;4148882;28;20041;-78
2022/01/24 09:02:18;;;;;;;3.22;0.82;;;28.40;61.30;;;;;;4150682;28;20052;-78
2022/01/24 09:04:41;;;;;;;1.83;0.80;;;28.40;61.10;;;;;;4150953;28;20037;-83
2022/01/24 09:07:05;;;;;;;3.70;1.10;;;28.30;60.90;;;;;;4151279;28;20459;-78
2022/01/24 09:09:27;;;;;;;2.72;1.20;;;28.30;60.90;;;;;;4152601;28;20917;-76
2022/01/24 09:11:50;;;;;;;3.05;1.08;;;28.30;60.70;;;;;;4154686;28;20098;-78
2022/01/24 09:14:12;;;;;;;3.15;0.98;;;28.20;60.70;;;;;;4146818;28;20375;-84
2022/01/24 09:16:36;;;;;;;2.58;0.88;;;28.20;60.70;;;;;;4154711;28;20581;-72
2022/01/24 09:18:58;;;;;;;2.22;1.25;;;28.20;60.90;;;;;;4151688;28;20116;-67
2022/01/24 09:21:22;;;;;;;2.40;0.85;;;28.20;61.10;;;;;;4149293;28;20807;-68
2022/01/24 09:23:44;;;;;;;4.22;1.02;;;28.20;61.30;;;;;;4151907;28;20048;-68
2022/01/24 09:26:07;;;;;;;3.42;1.00;;;28.20;61.30;;;;;;4148432;28;20052;-67
2022/01/24 09:28:29;;;;;;;6.88;1.33;;;28.20;61.30;;;;;;4149589;28;20099;-68
2022/01/24 09:30:53;;;;;;;6.22;1.02;;;28.20;61.40;;;;;;4152725;28;20486;-69
2022/01/24 09:33:16;;;;;;;4.75;1.20;;;28.20;61.50;;;;;;4149062;28;20057;-69
2022/01/24 09:35:38;;;;;;;3.40;1.08;;;28.20;61.40;;;;;;4153077;28;20041;-68
2022/01/24 09:38:01;;;;;;;3.10;1.07;;;28.20;61.30;;;;;;4149179;28;20133;-70
2022/01/24 09:40:24;;;;;;;6.40;1.30;;;28.20;61.30;;;;;;4151414;28;20143;-70
2022/01/24 09:42:47;;;;;;;5.40;1.42;;;28.20;61.20;;;;;;4154262;28;20438;-71
2022/01/24 09:45:11;;;;;;;6.28;1.30;;;28.20;61.20;;;;;;4143174;28;20085;-69
2022/01/24 09:47:37;;;;;;;2.53;1.23;;;28.20;61.20;;;;;;4153633;28;20033;-70
2022/01/24 09:49:59;;;;;;;7.50;1.00;;;28.20;61.20;;;;;;4155729;28;20038;-71
2022/01/24 09:52:22;;;;;;;1.85;0.90;;;28.20;61.10;;;;;;4158351;28;20590;-70
2022/01/24 09:54:45;;;;;;;7.15;1.10;;;28.20;61.20;;;;;;4153279;28;20040;-71
2022/01/24 09:57:07;;;;;;;2.50;1.10;;;28.20;61.40;;;;;;4156972;28;20053;-68
2022/01/24 09:59:31;;;;;;;2.23;0.90;;;28.20;61.00;;;;;;4156642;28;20049;-69
2022/01/24 10:01:54;;;;;;;3.58;0.98;;;28.20;60.90;;;;;;4157204;28;20061;-67
2022/01/24 10:04:19;;;;;;;2.80;0.90;;;28.20;60.90;;;;;;4153092;28;20029;-69
2022/01/24 10:07:02;;;;;;;5.03;1.08;;;28.20;60.90;;;;;;4153591;28;20925;-70
2022/01/24 10:09:44;;;;;;;5.18;1.55;;;28.20;60.80;;;;;;4144574;28;20049;-68
2022/01/24 10:12:16;;;;;;;4.78;1.13;;;28.20;60.80;;;;;;4153915;28;20080;-73
2022/01/24 10:17:26;;;;;;;3.38;1.10;;;28.20;60.30;;;;;;4149841;28;20767;-77
2022/01/24 10:19:49;;;;;;;3.03;1.13;;;28.20;61.10;;;;;;4152618;28;20470;-76
2022/01/24 10:22:11;;;;;;;2.45;0.80;;;28.10;60.70;;;;;;4158117;28;20037;-72
2022/01/24 10:24:42;;;;;;;2.63;1.23;;;28.10;60.60;;;;;;4151573;28;20037;-76
2022/01/24 10:27:20;;;;;;;4.40;1.17;;;28.10;60.60;;;;;;4154342;28;20080;-77
2022/01/24 10:30:08;;;;;;;3.33;1.10;;;28.10;60.60;;;;;;4155990;28;20696;-76
2022/01/24 10:32:52;;;;;;;3.92;1.48;;;28.10;60.70;;;;;;4152169;28;20069;-76
2022/01/24 10:35:35;;;;;;;4.72;1.30;;;28.10;60.90;;;;;;4156157;28;20048;-76
2022/01/24 10:38:39;;;;;;;7.45;1.50;;;28.10;60.60;;;;;;4152169;28;20093;-75
2022/01/24 10:43:31;;;;;;;9.13;1.45;;;28.10;61.00;;;;;;4155921;28;20041;-74
2022/01/24 10:45:56;;;;;;;8.38;1.50;;;28.10;61.20;;;;;;4152732;28;20045;-73
2022/01/24 10:48:28;;;;;;;6.10;1.70;;;28.10;61.40;;;;;;4155006;28;20057;-67
2022/01/24 10:51:03;;;;;;;7.70;1.58;;;28.10;61.70;;;;;;4153675;28;20053;-69
2022/01/24 10:53:39;;;;;;;4.07;1.73;;;28.10;61.80;;;;;;4151796;28;20716;-69
2022/01/24 10:56:02;;;;;;;3.60;1.23;;;28.10;62.00;;;;;;4153419;28;20747;-70
2022/01/24 10:58:36;;;;;;;7.60;1.40;;;28.10;62.00;;;;;;4151309;28;20056;-71
2022/01/24 11:00:59;;;;;;;4.28;1.80;;;28.10;62.00;;;;;;4136136;28;20100;-71
2022/01/24 11:03:21;;;;;;;3.00;0.90;;;28.10;62.20;;;;;;4156110;28;20120;-70
2022/01/24 11:05:44;;;;;;;3.47;1.20;;;28.10;62.10;;;;;;4154158;28;20030;-73
2022/01/24 11:08:13;;;;;;;18.85;2.50;;;28.10;62.00;;;;;;4140893;28;20117;-72
2022/01/24 11:10:41;;;;;;;33.30;4.30;;;28.10;62.20;;;;;;4152392;28;20109;-71
2022/01/24 11:13:05;;;;;;;27.90;2.95;;;28.20;62.50;;;;;;4147939;28;20037;-70
2022/01/24 11:15:27;;;;;;;25.15;2.42;;;28.10;62.50;;;;;;4150458;28;20086;-70
2022/01/24 11:17:51;;;;;;;17.30;1.95;;;28.10;62.40;;;;;;4152072;28;20132;-69
2022/01/24 11:20:18;;;;;;;15.27;1.98;;;28.10;62.40;;;;;;4152490;28;20048;-71
2022/01/24 11:22:44;;;;;;;11.13;1.33;;;28.10;62.40;;;;;;4154226;28;20073;-70
2022/01/24 11:25:08;;;;;;;7.57;1.67;;;28.10;62.40;;;;;;4156182;28;20045;-70
2022/01/24 11:27:31;;;;;;;5.35;1.38;;;28.20;62.50;;;;;;4148498;28;20679;-71
2022/01/24 11:30:11;;;;;;;5.33;1.97;;;28.10;62.50;;;;;;4154329;28;20033;-70
2022/01/24 11:32:58;;;;;;;6.32;1.17;;;28.20;62.50;;;;;;4152892;28;20683;-70
2022/01/24 11:35:52;;;;;;;3.50;1.20;;;28.10;63.20;;;;;;4150209;28;20476;-71
2022/01/24 11:38:32;;;;;;;5.63;1.50;;;28.10;62.50;;;;;;4147740;28;20041;-69
2022/01/24 11:41:03;;;;;;;5.68;1.05;;;28.10;62.50;;;;;;4151901;28;20057;-70
2022/01/24 11:43:33;;;;;;;3.20;1.30;;;28.10;62.00;;;;;;4153241;28;20033;-72
2022/01/24 11:46:01;;;;;;;5.00;0.90;;;28.10;62.60;;;;;;4149584;28;20037;-72
2022/01/24 11:48:23;;;;;;;1.10;0.60;;;28.10;62.70;;;;;;4156610;28;20045;-71
2022/01/24 11:51:12;;;;;;;3.40;1.00;;;28.10;62.70;;;;;;4155152;28;20606;-70
2022/01/24 11:53:44;;;;;;;4.03;1.00;;;28.10;62.60;;;;;;4148628;28;20037;-70
2022/01/24 11:56:29;;;;;;;3.28;1.10;;;28.10;62.60;;;;;;4151752;28;20099;-70
2022/01/24 11:59:11;;;;;;;2.35;0.85;;;28.00;62.50;;;;;;4149741;28;20419;-71
2022/01/24 12:01:39;;;;;;;3.35;0.95;;;28.10;62.50;;;;;;4153314;28;20045;-71
2022/01/24 12:04:02;;;;;;;3.80;0.98;;;28.00;62.50;;;;;;4153738;28;20041;-72
2022/01/24 12:06:25;;;;;;;1.65;0.80;;;28.00;62.60;;;;;;4152644;28;20041;-73
2022/01/24 12:09:02;;;;;;;2.30;0.93;;;28.00;62.60;;;;;;4156178;28;20049;-72
2022/01/24 12:11:33;;;;;;;2.28;0.63;;;28.00;63.00;;;;;;4155251;28;20073;-73
2022/01/24 12:14:02;;;;;;;3.40;0.93;;;28.00;62.60;;;;;;4142003;28;20507;-73
2022/01/24 12:16:43;;;;;;;1.17;0.60;;;28.00;62.50;;;;;;4156515;28;20037;-73
2022/01/24 12:19:07;;;;;;;3.53;0.90;;;28.00;62.60;;;;;;4154637;28;20080;-73
2022/01/24 12:21:29;;;;;;;;;;;27.90;62.60;;;;;;4152314;28;20034;-72
2022/01/24 12:24:10;;;;;;;2.03;0.70;;;27.90;62.60;;;;;;4157497;28;19927;-72
2022/01/24 12:26:39;;;;;;;3.30;1.00;;;27.90;62.60;;;;;;4158163;28;20048;-73
2022/01/24 12:29:10;;;;;;;3.70;0.88;;;27.90;62.70;;;;;;4150739;28;20066;-72
2022/01/24 12:31:42;;;;;;;2.90;1.02;;;27.90;62.60;;;;;;4160484;28;20029;-74
2022/01/24 12:34:08;;;;;;;1.75;0.80;;;27.90;62.70;;;;;;4161876;28;20140;-73
2022/01/24 12:36:52;;;;;;;9.40;0.85;;;27.90;62.70;;;;;;4158952;28;20112;-75
2022/01/24 12:39:26;;;;;;;4.10;0.90;;;27.90;62.70;;;;;;4157544;28;20055;-73
2022/01/24 12:42:02;;;;;;;2.40;0.90;;;27.90;62.60;;;;;;4157327;28;20060;-72
2022/01/24 12:47:06;;;;;;;4.82;1.20;;;27.90;62.60;;;;;;4162134;28;20033;-71
2022/01/24 12:49:30;;;;;;;1.63;0.68;;;27.80;62.50;;;;;;4162660;28;20052;-72
2022/01/24 12:51:52;;;;;;;2.05;0.45;;;27.90;62.60;;;;;;4162130;28;20105;-72
2022/01/24 12:54:16;;;;;;;1.83;0.77;;;27.80;62.60;;;;;;4161944;28;20112;-72
2022/01/24 12:56:38;;;;;;;;;;;27.80;62.60;;;;;;4163184;28;20152;-71
2022/01/24 12:59:01;;;;;;;2.25;0.90;;;27.80;62.60;;;;;;4157265;28;20349;-72
2022/01/24 13:01:31;;;;;;;1.77;0.80;;;27.80;62.70;;;;;;4155943;28;20435;-72
2022/01/24 13:03:55;;;;;;;1.75;1.05;;;27.80;62.60;;;;;;4158821;28;20064;-72
2022/01/24 13:06:19;;;;;;;2.20;0.70;;;27.80;62.60;;;;;;4156035;28;20045;-72
2022/01/24 13:08:52;;;;;;;2.65;0.60;;;27.80;62.60;;;;;;4158559;28;20083;-71
2022/01/24 13:11:15;;;;;;;1.75;0.57;;;27.80;62.60;;;;;;4139547;28;20137;-71
2022/01/24 13:13:41;;;;;;;2.15;0.57;;;27.80;62.60;;;;;;4153865;28;20044;-72
2022/01/24 13:21:26;;;;;;;2.03;0.80;;;27.70;62.50;;;;;;4156717;28;20037;-72
2022/01/24 13:24:00;;;;;;;1.27;0.70;;;27.70;62.40;;;;;;4159394;28;20034;-73
2022/01/24 13:26:22;;;;;;;2.53;0.80;;;27.70;62.50;;;;;;4155700;28;20052;-73
2022/01/24 13:28:45;;;;;;;2.38;0.63;;;27.70;62.60;;;;;;4156332;28;20609;-72
2022/01/24 13:31:07;;;;;;;1.42;0.70;;;27.70;62.60;;;;;;4141027;28;20068;-72
2022/01/24 13:33:35;;;;;;;1.55;0.55;;;27.70;62.60;;;;;;4155289;28;20113;-71
2022/01/24 13:36:05;;;;;;;2.20;0.82;;;27.70;62.60;;;;;;4158852;28;20116;-71
2022/01/24 13:38:33;;;;;;;3.72;0.68;;;27.70;62.80;;;;;;4159349;28;20052;-68
2022/01/24 13:41:08;;;;;;;4.07;0.90;;;27.60;62.70;;;;;;4158176;28;20075;-68
2022/01/24 13:43:33;;;;;;;2.70;1.13;;;27.60;62.70;;;;;;4158699;28;20069;-69
2022/01/24 13:45:56;;;;;;;2.95;1.00;;;27.60;62.70;;;;;;4156348;28;20060;-68
2022/01/24 13:48:22;;;;;;;2.05;0.95;;;27.60;62.60;;;;;;4158654;28;20056;-67
2022/01/24 13:50:56;;;;;;;1.88;0.82;;;27.60;62.60;;;;;;4156408;28;20111;-70
2022/01/24 13:53:34;;;;;;;2.17;0.70;;;27.60;62.60;;;;;;4154421;28;20140;-71
2022/01/24 13:55:58;;;;;;;1.23;0.60;;;27.60;62.60;;;;;;4159408;28;20037;-71
2022/01/24 13:58:29;;;;;;;;;;;27.60;62.50;;;;;;4160413;28;20041;-71
2022/01/24 14:00:59;;;;;;;3.90;0.85;;;27.60;62.60;;;;;;4158857;28;19909;-72
2022/01/24 14:03:23;;;;;;;3.47;1.15;;;27.60;63.00;;;;;;4157628;28;20161;-71
2022/01/24 14:05:45;;;;;;;1.75;0.80;;;27.50;62.50;;;;;;4163421;28;20044;-71
2022/01/24 14:08:18;;;;;;;3.78;0.90;;;27.50;62.50;;;;;;4154696;28;20040;-71
2022/01/24 14:10:40;;;;;;;2.08;0.77;;;27.50;62.50;;;;;;4158742;28;20049;-70
2022/01/24 14:13:07;;;;;;;2.00;0.73;;;27.50;62.50;;;;;;4158948;28;20041;-71
2022/01/24 14:15:49;;;;;;;1.63;0.93;;;27.50;62.60;;;;;;4154720;28;20131;-71
2022/01/24 14:20:39;;;;;;;2.40;0.90;;;27.50;62.60;;;;;;4157746;28;20052;-72
2022/01/24 14:23:03;;;;;;;3.00;1.00;;;27.50;62.60;;;;;;4157570;28;20055;-72